Terminal Aerodrome Forecast
Issued by NWS Grand Rapids, MI

Home | Current Version | Previous Version | Text Only | Print | Product List | Glossary On
Versions: 1 2 3 4 5 6 7 8 9 10 11 12 13 14
000
FTUS43 KGRR 221100
TAFGRR
TAF
KGRR 221140Z 2212/2312 18010KT P6SM SKC
     FM221500 21014G24KT P6SM SCT120
     FM230000 21014G22KT 4SM HZ VCTS OVC050CB
     FM230400 33012G20KT 4SM BR BKN100
     FM230900 35012G20KT P6SM BKN020=

USA.gov is the U.S. government's official web portal to all federal, state and local government web resources and services.